Terminal Aerodrome Forecast
Issued by NWS Austin/San Antonio, TX

Home | Current Version | Previous Version | Text Only | Print | Product List | Glossary On
Versions: 1 2 3 4 5 6 7 8 9 10 11 12 13 14 15 16 17 18 19 20 21 22 23 24 25 26 27 28
000
FTUS44 KEWX 021100
TAFAUS
TAF
KAUS 021132Z 0212/0318 35008KT 4SM -DZ BR OVC007
     FM021700 02010KT 3SM BR OVC007
     FM030000 04004KT 2SM BR OVC004
     FM030800 07002KT 1SM BR OVC002=

USA.gov is the U.S. government's official web portal to all federal, state and local government web resources and services.